createdAt,value
2018-11-01T00:01:54.124Z,11.38
2018-11-01T00:04:35.536Z,18.10
2018-11-01T00:07:17.634Z,15.63
2018-11-01T00:09:59.780Z,14.18
2018-11-01T00:12:43.631Z,16.80
2018-11-01T00:15:26.066Z,14.43
2018-11-01T00:18:08.356Z,15.53
2018-11-01T00:20:50.755Z,15.03
2018-11-01T00:23:32.902Z,19.32
2018-11-01T00:26:14.626Z,16.48
2018-11-01T00:28:56.658Z,18.00
2018-11-01T00:31:38.442Z,18.85
2018-11-01T00:34:20.244Z,16.95
2018-11-01T00:37:01.972Z,17.05
2018-11-01T00:39:44.419Z,22.65
2018-11-01T00:42:26.690Z,16.02
2018-11-01T00:45:09.434Z,15.83
2018-11-01T00:47:51.507Z,17.27
2018-11-01T00:50:34.138Z,17.25
2018-11-01T00:53:16.353Z,14.33
2018-11-01T00:55:59.644Z,14.40
2018-11-01T00:58:41.446Z,16.15
2018-11-01T01:01:23.605Z,16.52
2018-11-01T01:04:07.428Z,15.45
2018-11-01T01:06:49.654Z,18.42
2018-11-01T01:09:31.352Z,14.15
2018-11-01T01:12:13.303Z,13.40
2018-11-01T01:14:55.187Z,15.43
2018-11-01T01:17:37.009Z,15.03
2018-11-01T01:20:19.213Z,13.83
2018-11-01T01:23:01.332Z,14.47
2018-11-01T01:25:43.125Z,16.55
2018-11-01T01:28:25.365Z,14.78
2018-11-01T01:31:07.432Z,15.98
2018-11-01T01:33:49.131Z,16.52
2018-11-01T01:36:31.186Z,15.25
2018-11-01T01:39:13.053Z,17.62
2018-11-01T01:41:55.112Z,16.20
2018-11-01T01:44:37.143Z,17.35
2018-11-01T01:47:19.281Z,17.42
2018-11-01T01:50:01.075Z,17.90
2018-11-01T01:52:43.345Z,18.15
2018-11-01T01:55:25.512Z,13.53
2018-11-01T01:58:07.341Z,20.12
2018-11-01T02:00:49.678Z,17.15
2018-11-01T02:03:32.188Z,17.20
2018-11-01T02:06:13.984Z,14.93
2018-11-01T02:08:56.528Z,14.40
2018-11-01T02:11:39.059Z,16.93
2018-11-01T02:14:21.301Z,13.05
2018-11-01T02:17:03.171Z,15.05
2018-11-01T02:19:45.355Z,14.15
2018-11-01T02:22:27.473Z,15.55
2018-11-01T02:25:09.612Z,16.97
2018-11-01T02:27:56.490Z,18.07
2018-11-01T02:30:38.525Z,16.65
2018-11-01T02:33:20.812Z,17.48
2018-11-01T02:36:02.986Z,17.98
2018-11-01T02:38:45.412Z,17.77
2018-11-01T02:41:27.405Z,19.95
2018-11-01T02:44:09.501Z,19.73
2018-11-01T02:46:51.498Z,17.27
2018-11-01T02:49:33.551Z,17.20
2018-11-01T02:52:15.614Z,18.52
2018-11-01T02:54:58.468Z,21.50
2018-11-01T02:57:40.278Z,18.70
2018-11-01T03:00:22.733Z,17.10
2018-11-01T03:03:05.096Z,19.65
2018-11-01T03:05:47.705Z,18.73
2018-11-01T03:08:30.107Z,19.20
2018-11-01T03:11:12.556Z,20.23
2018-11-01T03:13:54.724Z,17.77
2018-11-01T03:16:36.977Z,21.12
2018-11-01T03:19:19.537Z,18.35
2018-11-01T03:22:01.785Z,18.00
2018-11-01T03:24:43.952Z,18.87
2018-11-01T03:27:26.111Z,18.55
2018-11-01T03:30:08.535Z,19.40
2018-11-01T03:32:51.235Z,16.87
2018-11-01T03:35:33.703Z,18.35
2018-11-01T03:38:16.987Z,24.50
2018-11-01T03:40:59.255Z,19.80
2018-11-01T03:43:41.783Z,19.10
2018-11-01T03:46:23.960Z,20.70
2018-11-01T03:49:06.277Z,22.02
2018-11-01T03:51:48.548Z,22.10
2018-11-01T03:54:30.006Z,22.00
2018-11-01T03:57:12.331Z,20.40
2018-11-01T03:59:54.024Z,19.95
2018-11-01T04:02:35.877Z,20.08
2018-11-01T04:05:17.976Z,21.15
2018-11-01T04:07:59.805Z,21.23
2018-11-01T04:10:41.472Z,20.30
2018-11-01T04:13:23.830Z,18.62
2018-11-01T04:16:06.198Z,19.60
2018-11-01T04:18:47.926Z,20.72
2018-11-01T04:21:30.334Z,24.37
2018-11-01T04:24:12.461Z,18.12
2018-11-01T04:26:55.025Z,22.10
2018-11-01T04:29:37.152Z,24.18
2018-11-01T04:32:18.993Z,19.82
2018-11-01T04:35:00.804Z,19.25
2018-11-01T04:37:42.415Z,24.98
2018-11-01T04:40:26.271Z,21.27
2018-11-01T04:43:08.017Z,23.32
2018-11-01T04:45:50.380Z,19.92
2018-11-01T04:48:32.750Z,22.15
2018-11-01T04:51:14.433Z,18.52
2018-11-01T04:53:57.005Z,18.40
2018-11-01T04:56:38.868Z,21.95
2018-11-01T04:59:21.239Z,18.17
2018-11-01T05:02:03.078Z,17.45
2018-11-01T05:04:45.048Z,21.15
2018-11-01T05:07:26.897Z,17.40
2018-11-01T05:10:11.127Z,18.10
2018-11-01T05:12:53.302Z,15.45
2018-11-01T05:15:35.663Z,19.48
2018-11-01T05:18:17.730Z,18.42
2018-11-01T05:21:00.480Z,19.05
2018-11-01T05:23:42.485Z,18.23
2018-11-01T05:26:24.691Z,19.00
2018-11-01T05:29:07.126Z,17.27
2018-11-01T05:31:48.803Z,15.45
2018-11-01T05:34:30.516Z,19.40
2018-11-01T05:37:12.850Z,19.30
2018-11-01T05:39:54.677Z,15.80
2018-11-01T05:42:36.997Z,21.48
2018-11-01T05:45:18.897Z,15.08
2018-11-01T05:48:00.902Z,17.77
2018-11-01T05:50:43.416Z,16.00
2018-11-01T05:53:25.286Z,16.67
2018-11-01T05:56:07.405Z,18.77
2018-11-01T05:58:49.203Z,16.55
2018-11-01T06:01:32.797Z,16.10
2018-11-01T06:04:14.900Z,22.55
2018-11-01T06:06:56.984Z,16.57
2018-11-01T06:09:38.691Z,19.07
2018-11-01T06:12:20.930Z,18.60
2018-11-01T06:15:03.278Z,16.25
2018-11-01T06:17:45.440Z,16.55
2018-11-01T06:20:27.435Z,16.17
2018-11-01T06:23:09.419Z,18.12
2018-11-01T06:25:51.523Z,16.42
2018-11-01T06:28:34.554Z,15.38
2018-11-01T06:31:16.636Z,12.70
2018-11-01T06:33:58.794Z,14.20
2018-11-01T06:36:41.840Z,12.28
2018-11-01T06:39:24.207Z,14.38
2018-11-01T06:42:07.018Z,11.65
2018-11-01T06:44:49.217Z,18.37
2018-11-01T06:47:31.257Z,9.55
2018-11-01T06:50:13.428Z,13.48
2018-11-01T06:52:55.423Z,8.75
2018-11-01T06:55:37.219Z,11.68
2018-11-01T06:58:19.426Z,8.88
2018-11-01T07:01:02.172Z,10.08
2018-11-01T07:03:44.367Z,9.33
2018-11-01T07:06:26.190Z,10.40
2018-11-01T07:09:11.592Z,10.28
2018-11-01T07:11:53.612Z,11.83
2018-11-01T07:14:35.568Z,12.40
2018-11-01T07:17:18.134Z,14.80
2018-11-01T07:20:00.348Z,13.58
2018-11-01T07:22:43.031Z,11.75
2018-11-01T07:25:25.836Z,14.23
2018-11-01T07:28:08.121Z,13.28
2018-11-01T07:30:50.263Z,18.98
2018-11-01T07:33:32.206Z,15.72
2018-11-01T07:36:14.618Z,11.40
2018-11-01T07:38:56.337Z,15.03
2018-11-01T07:41:39.180Z,13.18
2018-11-01T07:44:21.434Z,12.53
2018-11-01T07:47:03.938Z,11.55
2018-11-01T07:49:46.414Z,9.70
2018-11-01T07:52:28.975Z,11.38
2018-11-01T07:55:14.869Z,7.47
2018-11-01T07:57:56.809Z,7.53
2018-11-01T08:00:38.601Z,8.33
2018-11-01T08:03:20.067Z,6.77
2018-11-01T08:06:01.601Z,8.60
2018-11-01T08:08:43.655Z,7.27
2018-11-01T08:11:25.433Z,6.53
2018-11-01T08:14:08.063Z,8.53
2018-11-01T08:16:50.289Z,6.90
2018-11-01T08:19:31.770Z,8.10
2018-11-01T08:22:13.265Z,8.27
2018-11-01T08:24:54.751Z,4.50
2018-11-01T08:27:36.275Z,4.80
2018-11-01T08:30:18.592Z,5.60
2018-11-01T08:33:00.011Z,6.73
2018-11-01T08:35:42.073Z,5.53
2018-11-01T08:38:23.913Z,14.53
2018-11-01T08:41:06.007Z,8.60
2018-11-01T08:43:47.453Z,6.40
2018-11-01T08:46:29.192Z,7.37
2018-11-01T08:49:10.621Z,7.17
2018-11-01T08:51:52.817Z,4.77
2018-11-01T08:54:35.343Z,7.60
2018-11-01T08:57:17.034Z,5.17
2018-11-01T08:59:58.796Z,3.97
2018-11-01T09:02:41.115Z,7.27
2018-11-01T09:05:23.064Z,6.47
2018-11-01T09:08:04.957Z,5.13
2018-11-01T09:10:46.897Z,6.03
2018-11-01T09:13:28.260Z,9.17
2018-11-01T09:16:10.185Z,4.73
2018-11-01T09:18:52.376Z,4.43
2018-11-01T09:21:33.966Z,5.43
2018-11-01T09:24:15.998Z,4.23
2018-11-01T09:26:57.848Z,5.07
2018-11-01T09:29:39.676Z,3.93
2018-11-01T09:32:21.172Z,4.33
2018-11-01T09:35:02.613Z,3.50
2018-11-01T09:37:44.912Z,5.23
2018-11-01T09:40:26.419Z,4.07
2018-11-01T09:43:09.060Z,4.47
2018-11-01T09:45:50.840Z,4.90
2018-11-01T09:48:32.393Z,4.33
2018-11-01T09:51:14.405Z,2.73
2018-11-01T09:53:56.204Z,5.73
2018-11-01T09:56:37.994Z,5.53
2018-11-01T09:59:19.797Z,5.23
2018-11-01T10:02:01.651Z,2.63
2018-11-01T10:04:43.388Z,2.93
2018-11-01T10:07:25.329Z,3.93
2018-11-01T10:10:09.861Z,5.27
2018-11-01T10:12:51.892Z,5.97
2018-11-01T10:15:33.558Z,4.33
2018-11-01T10:18:15.709Z,3.87
2018-11-01T10:20:57.031Z,4.87
2018-11-01T10:23:39.226Z,4.73
2018-11-01T10:26:20.855Z,6.33
2018-11-01T10:29:02.634Z,5.90
2018-11-01T10:31:44.877Z,4.93
2018-11-01T10:34:26.186Z,5.30
2018-11-01T10:37:07.938Z,4.67
2018-11-01T10:39:49.742Z,4.73
2018-11-01T10:42:31.524Z,4.10
2018-11-01T10:45:13.092Z,4.40
2018-11-01T10:47:54.677Z,5.13
2018-11-01T10:50:36.072Z,7.60
2018-11-01T10:53:17.993Z,5.97
2018-11-01T10:55:59.408Z,4.77
2018-11-01T10:58:41.075Z,5.77
2018-11-01T11:01:28.454Z,5.17
2018-11-01T11:04:10.339Z,5.57
2018-11-01T11:06:52.703Z,7.50
2018-11-01T11:09:34.301Z,10.80
2018-11-01T11:12:16.548Z,4.77
2018-11-01T11:14:58.329Z,6.93
2018-11-01T11:17:40.721Z,5.63
2018-11-01T11:20:22.792Z,5.30
2018-11-01T11:23:04.286Z,7.87
2018-11-01T11:25:45.710Z,5.17
2018-11-01T11:28:27.653Z,8.50
2018-11-01T11:31:09.204Z,9.10
2018-11-01T11:33:50.648Z,4.33
2018-11-01T11:36:32.675Z,6.60
2018-11-01T11:39:14.287Z,12.63
2018-11-01T11:41:56.183Z,10.47
2018-11-01T11:44:38.175Z,8.73
2018-11-01T11:47:20.948Z,4.60
2018-11-01T11:50:02.387Z,6.80
2018-11-01T11:52:44.785Z,6.77
2018-11-01T11:55:26.693Z,7.20
2018-11-01T11:58:08.222Z,4.87
2018-11-01T12:00:49.941Z,10.10
2018-11-01T12:03:32.064Z,8.03
2018-11-01T12:06:13.740Z,6.37
2018-11-01T12:08:55.581Z,6.87
2018-11-01T12:11:37.356Z,4.87
2018-11-01T12:14:20.330Z,8.30
2018-11-01T12:17:02.733Z,4.67
2018-11-01T12:19:44.544Z,7.27
2018-11-01T12:22:26.848Z,6.63
2018-11-01T12:25:08.870Z,11.10
2018-11-01T12:27:50.265Z,9.87
2018-11-01T12:30:31.512Z,9.03
2018-11-01T12:33:13.758Z,11.77
2018-11-01T12:35:55.338Z,11.03
2018-11-01T12:38:37.325Z,10.40
2018-11-01T12:41:19.139Z,7.47
2018-11-01T12:44:00.803Z,10.57
2018-11-01T12:46:42.163Z,7.33
2018-11-01T12:49:24.187Z,5.80
2018-11-01T12:52:06.111Z,9.77
2018-11-01T12:54:47.527Z,5.87
2018-11-01T12:57:29.360Z,11.53
2018-11-01T13:00:12.626Z,7.63
2018-11-01T13:02:54.115Z,8.70
2018-11-01T13:05:35.726Z,11.47
2018-11-01T13:08:17.211Z,8.27
2018-11-01T13:10:58.589Z,5.60
2018-11-01T13:13:39.918Z,7.83
2018-11-01T13:16:21.702Z,7.53
2018-11-01T13:19:03.092Z,10.57
2018-11-01T13:21:45.013Z,11.17
2018-11-01T13:24:26.605Z,13.93
2018-11-01T13:27:08.024Z,9.27
2018-11-01T13:29:49.552Z,9.00
2018-11-01T13:32:31.400Z,10.73
2018-11-01T13:35:13.561Z,10.67
2018-11-01T13:37:55.326Z,7.53
2018-11-01T13:40:38.372Z,9.77
2018-11-01T13:43:19.724Z,13.53
2018-11-01T13:46:01.091Z,12.47
2018-11-01T13:48:42.806Z,11.50
2018-11-01T13:51:24.877Z,11.37
2018-11-01T13:54:07.588Z,10.50
2018-11-01T13:56:48.979Z,10.63
2018-11-01T13:59:31.238Z,11.27
2018-11-01T14:02:13.048Z,11.97
2018-11-01T14:04:56.719Z,10.37
2018-11-01T14:07:38.636Z,9.67
2018-11-01T14:10:20.550Z,10.97
2018-11-01T14:13:02.412Z,13.37
2018-11-01T14:15:44.982Z,13.63
2018-11-01T14:18:26.546Z,11.90
2018-11-01T14:21:08.358Z,11.67
2018-11-01T14:23:49.831Z,11.83
2018-11-01T14:26:31.664Z,12.07
2018-11-01T14:29:13.685Z,13.73
2018-11-01T14:31:56.268Z,15.47
2018-11-01T14:34:38.109Z,11.80
2018-11-01T14:37:20.256Z,16.60
2018-11-01T14:40:01.905Z,10.33
2018-11-01T14:42:43.830Z,17.50
2018-11-01T14:45:25.297Z,10.93
2018-11-01T14:48:07.222Z,11.37
2018-11-01T14:50:49.176Z,8.60
2018-11-01T14:53:31.130Z,9.57
2018-11-01T14:56:14.282Z,12.83
2018-11-01T14:58:57.277Z,10.40
2018-11-01T15:01:37.393Z,8.53
2018-11-01T15:04:19.176Z,9.40
2018-11-01T15:07:01.034Z,10.03
2018-11-01T15:09:43.265Z,10.27
2018-11-01T15:12:25.103Z,13.67
2018-11-01T15:15:08.826Z,14.47
2018-11-01T15:17:50.229Z,15.00
2018-11-01T15:20:31.946Z,12.27
2018-11-01T15:23:13.756Z,16.27
2018-11-01T15:25:56.128Z,10.77
2018-11-01T15:28:38.310Z,11.13
2018-11-01T15:31:20.891Z,15.93
2018-11-01T15:34:03.148Z,13.37
2018-11-01T15:36:45.153Z,9.83
2018-11-01T15:39:26.682Z,13.33
2018-11-01T15:42:08.478Z,10.10
2018-11-01T15:44:50.871Z,11.30
2018-11-01T15:47:32.766Z,12.00
2018-11-01T15:50:14.752Z,13.67
2018-11-01T15:52:56.216Z,13.67
2018-11-01T15:55:37.482Z,13.93
2018-11-01T15:58:19.165Z,13.20
2018-11-01T16:01:01.415Z,12.60
2018-11-01T16:03:43.573Z,12.90
2018-11-01T16:06:25.485Z,15.48
2018-11-01T16:09:12.389Z,12.88
2018-11-01T16:11:54.314Z,11.33
2018-11-01T16:14:36.069Z,11.33
2018-11-01T16:17:19.060Z,14.58
2018-11-01T16:20:01.687Z,14.23
2018-11-01T16:22:43.919Z,15.00
2018-11-01T16:25:25.625Z,11.75
2018-11-01T16:28:09.352Z,14.05
2018-11-01T16:30:51.412Z,14.33
2018-11-01T16:33:33.568Z,17.17
2018-11-01T16:36:17.296Z,12.35
2018-11-01T16:39:00.959Z,13.53
2018-11-01T16:41:42.683Z,15.35
2018-11-01T16:44:24.850Z,14.07
2018-11-01T16:47:07.074Z,14.03
2018-11-01T16:49:48.845Z,16.27
2018-11-01T16:52:31.049Z,18.92
2018-11-01T16:55:12.796Z,17.90
2018-11-01T16:57:54.723Z,14.87
2018-11-01T17:00:36.858Z,14.33
2018-11-01T17:03:18.636Z,20.17
2018-11-01T17:06:01.054Z,14.43
2018-11-01T17:08:43.770Z,19.70
2018-11-01T17:11:26.033Z,13.83
2018-11-01T17:14:08.296Z,15.25
2018-11-01T17:16:50.371Z,18.77
2018-11-01T17:19:32.702Z,12.80
2018-11-01T17:22:14.587Z,17.12
2018-11-01T17:24:57.499Z,13.90
2018-11-01T17:27:40.405Z,14.38
2018-11-01T17:30:21.857Z,19.00
2018-11-01T17:33:04.701Z,19.40
2018-11-01T17:35:47.184Z,21.40
2018-11-01T17:38:30.097Z,20.50
2018-11-01T17:41:12.344Z,17.25
2018-11-01T17:43:55.042Z,17.00
2018-11-01T17:46:36.898Z,25.87
2018-11-01T17:49:19.423Z,23.32
2018-11-01T17:52:01.212Z,20.92
2018-11-01T17:54:43.620Z,20.12
2018-11-01T17:57:25.867Z,25.50
2018-11-01T18:00:10.639Z,16.77
2018-11-01T18:02:53.195Z,18.23
2018-11-01T18:05:35.501Z,18.20
2018-11-01T18:08:17.079Z,20.10
2018-11-01T18:11:00.241Z,16.52
2018-11-01T18:13:43.291Z,17.75
2018-11-01T18:16:27.011Z,17.52
2018-11-01T18:19:09.725Z,20.90
2018-11-01T18:21:52.395Z,23.52
2018-11-01T18:24:34.256Z,19.48
2018-11-01T18:27:16.626Z,27.10
2018-11-01T18:29:59.330Z,15.88
2018-11-01T18:32:41.600Z,19.57
2018-11-01T18:35:24.077Z,23.92
2018-11-01T18:38:06.108Z,24.23
2018-11-01T18:40:48.721Z,20.77
2018-11-01T18:43:31.052Z,22.07
2018-11-01T18:46:12.803Z,20.68
2018-11-01T18:48:54.859Z,23.20
2018-11-01T18:51:36.667Z,28.45
2018-11-01T18:54:18.966Z,22.67
2018-11-01T18:57:01.198Z,15.88
2018-11-01T18:59:43.407Z,24.70
2018-11-01T19:02:25.522Z,19.27
2018-11-01T19:05:08.660Z,18.10
2018-11-01T19:07:50.901Z,17.23
2018-11-01T19:10:33.180Z,17.60
2018-11-01T19:13:15.565Z,20.52
2018-11-01T19:15:57.502Z,20.07
2018-11-01T19:18:39.853Z,25.30
2018-11-01T19:21:21.854Z,20.02
2018-11-01T19:24:03.969Z,21.35
2018-11-01T19:26:47.115Z,21.95
2018-11-01T19:29:29.422Z,23.02
2018-11-01T19:32:11.427Z,27.15
2018-11-01T19:34:53.276Z,23.65
2018-11-01T19:37:36.825Z,22.05
2018-11-01T19:40:19.205Z,24.18
2018-11-01T19:43:01.486Z,20.35
2018-11-01T19:45:43.696Z,23.30
2018-11-01T19:48:27.380Z,24.82
2018-11-01T19:51:09.317Z,17.37
2018-11-01T19:53:51.228Z,37.15
2018-11-01T19:56:33.976Z,22.58
2018-11-01T19:59:16.068Z,30.57
2018-11-01T20:01:58.069Z,26.52
2018-11-01T20:04:40.384Z,26.15
2018-11-01T20:07:22.578Z,37.78
2018-11-01T20:10:04.395Z,39.50
2018-11-01T20:12:46.841Z,25.72
2018-11-01T20:15:29.101Z,23.45
2018-11-01T20:18:10.944Z,27.42
2018-11-01T20:20:53.247Z,26.50
2018-11-01T20:23:35.404Z,22.95
2018-11-01T20:26:17.543Z,26.97
2018-11-01T20:28:59.857Z,27.00
2018-11-01T20:31:42.895Z,23.45
2018-11-01T20:34:25.007Z,27.55
2018-11-01T20:37:07.632Z,39.50
2018-11-01T20:39:50.444Z,30.12
2018-11-01T20:42:32.854Z,29.35
2018-11-01T20:45:15.737Z,29.25
2018-11-01T20:47:57.673Z,23.07
2018-11-01T20:50:39.459Z,21.70
2018-11-01T20:53:21.731Z,26.80
2018-11-01T20:56:04.277Z,29.90
2018-11-01T20:58:46.456Z,31.75
2018-11-01T21:01:29.659Z,28.50
2018-11-01T21:04:11.199Z,26.48
2018-11-01T21:06:53.750Z,32.60
2018-11-01T21:09:35.856Z,30.45
2018-11-01T21:12:18.571Z,27.73
2018-11-01T21:15:01.539Z,27.67
2018-11-01T21:17:43.970Z,30.82
2018-11-01T21:20:26.055Z,26.87
2018-11-01T21:23:08.515Z,24.40
2018-11-01T21:25:50.640Z,27.22
2018-11-01T21:28:32.362Z,26.37
2018-11-01T21:31:14.553Z,23.18
2018-11-01T21:33:56.771Z,22.58
2018-11-01T21:36:39.214Z,29.63
2018-11-01T21:39:20.924Z,25.97
2018-11-01T21:42:03.473Z,25.52
2018-11-01T21:44:45.716Z,29.25
2018-11-01T21:47:28.757Z,28.27
2018-11-01T21:50:11.224Z,24.27
2018-11-01T21:52:53.568Z,27.87
2018-11-01T21:55:35.549Z,30.80
2018-11-01T21:58:17.783Z,31.30
2018-11-01T22:01:00.575Z,26.42
2018-11-01T22:03:44.125Z,29.90
2018-11-01T22:06:26.536Z,30.70
2018-11-01T22:09:09.656Z,26.90
2018-11-01T22:11:51.450Z,28.87
2018-11-01T22:14:33.141Z,31.25
2018-11-01T22:17:15.129Z,26.97
2018-11-01T22:19:57.372Z,27.37
2018-11-01T22:22:39.897Z,25.65
2018-11-01T22:25:22.245Z,30.32
2018-11-01T22:28:04.065Z,34.13
2018-11-01T22:30:45.962Z,31.62
2018-11-01T22:33:27.669Z,26.90
2018-11-01T22:36:10.757Z,22.22
2018-11-01T22:38:52.576Z,19.85
2018-11-01T22:41:34.870Z,21.00
2018-11-01T22:44:17.319Z,17.90
2018-11-01T22:46:59.357Z,18.45
2018-11-01T22:49:47.853Z,24.37
2018-11-01T22:52:29.766Z,21.77
2018-11-01T22:55:12.321Z,22.35
2018-11-01T22:57:54.581Z,25.85
2018-11-01T23:00:40.991Z,20.48
2018-11-01T23:03:22.681Z,22.60
2018-11-01T23:06:04.854Z,24.30
2018-11-01T23:08:47.053Z,23.30
2018-11-01T23:11:28.809Z,28.83
2018-11-01T23:14:10.952Z,33.38
2018-11-01T23:16:53.154Z,31.07
2018-11-01T23:19:35.189Z,28.17
2018-11-01T23:22:17.152Z,31.40
2018-11-01T23:25:00.706Z,25.70
2018-11-01T23:27:42.841Z,24.45
2018-11-01T23:30:24.992Z,17.17
2018-11-01T23:33:07.869Z,24.67
2018-11-01T23:35:50.893Z,26.50
2018-11-01T23:38:38.889Z,21.40
2018-11-01T23:41:26.065Z,20.20
2018-11-01T23:44:14.313Z,28.15
2018-11-01T23:47:01.622Z,22.90
2018-11-01T23:49:48.613Z,20.85
2018-11-01T23:52:31.611Z,21.12
2018-11-01T23:55:13.320Z,22.65
2018-11-01T23:57:56.235Z,23.98
